Time;durP1;ratioP1;P1;durP2;ratioP2;P2;SDS_P1;SDS_P2;PMS_P1;PMS_P2;Temp;Humidity;BMP_temperature;BMP_pressure;BME280_temperature;BME280_humidity;BME280_pressure;Samples;Min_cycle;Max_cycle;Signal;HPM_P1;HPM_P2
2023/07/28 00:01:31;;;;;;;28.85;17.20;;;17.90;99.90;;;;;;4952815;28;20030;-78
2023/07/28 00:03:57;;;;;;;29.17;16.60;;;17.90;99.90;;;;;;4952930;28;20529;-79
2023/07/28 00:06:23;;;;;;;32.28;17.10;;;17.90;99.90;;;;;;4971274;28;20111;-78
2023/07/28 00:08:49;;;;;;;29.55;16.00;;;17.90;99.90;;;;;;5006479;28;20118;-78
2023/07/28 00:11:15;;;;;;;28.25;16.48;;;17.90;99.90;;;;;;4960802;28;20125;-78
2023/07/28 00:13:42;;;;;;;34.05;16.63;;;17.90;99.90;;;;;;4966719;28;20038;-80
2023/07/28 00:16:09;;;;;;;31.98;17.23;;;17.90;99.90;;;;;;4971691;28;20125;-79
2023/07/28 00:18:36;;;;;;;30.95;17.27;;;17.90;99.90;;;;;;4961762;28;20523;-79
2023/07/28 00:21:02;;;;;;;32.00;16.48;;;17.90;99.90;;;;;;4961218;28;20118;-79
2023/07/28 00:23:28;;;;;;;30.55;17.42;;;17.90;99.90;;;;;;4978738;28;20126;-79
2023/07/28 00:25:54;;;;;;;27.48;16.75;;;17.90;99.90;;;;;;4961535;28;20043;-79
2023/07/28 00:28:19;;;;;;;33.33;17.67;;;17.90;99.90;;;;;;5009895;28;20065;-79
2023/07/28 00:30:49;;;;;;;34.28;17.90;;;17.90;99.90;;;;;;5041840;28;20070;-79
2023/07/28 00:33:15;;;;;;;33.92;18.00;;;17.90;99.90;;;;;;4975115;28;20065;-79
2023/07/28 00:35:40;;;;;;;35.85;18.70;;;17.90;99.90;;;;;;4970161;28;20092;-79
2023/07/28 00:38:06;;;;;;;37.88;18.48;;;17.90;99.90;;;;;;4981194;28;20038;-79
2023/07/28 00:40:32;;;;;;;28.85;17.52;;;17.90;99.90;;;;;;4956834;28;20375;-79
2023/07/28 00:42:57;;;;;;;30.00;17.42;;;17.80;99.90;;;;;;4975406;28;20176;-79
2023/07/28 00:45:23;;;;;;;30.98;18.58;;;17.90;99.90;;;;;;4970207;28;20051;-79
2023/07/28 00:47:49;;;;;;;32.05;17.13;;;17.80;99.90;;;;;;4971543;28;20043;-79
2023/07/28 00:50:15;;;;;;;37.72;18.20;;;17.90;99.90;;;;;;4968438;28;20038;-79
2023/07/28 00:52:41;;;;;;;34.28;17.98;;;17.90;99.90;;;;;;4974976;28;20042;-79
2023/07/28 00:55:06;;;;;;;35.22;18.10;;;17.90;99.90;;;;;;4976530;28;20070;-79
2023/07/28 00:57:33;;;;;;;33.45;17.55;;;17.90;99.90;;;;;;4977811;28;20053;-79
2023/07/28 01:00:00;;;;;;;35.17;19.00;;;17.90;99.90;;;;;;5019874;28;20049;-79
2023/07/28 01:02:26;;;;;;;31.48;18.38;;;17.80;99.90;;;;;;5006742;28;20069;-79
2023/07/28 01:04:52;;;;;;;33.88;19.00;;;17.90;99.90;;;;;;4973819;28;20034;-79
2023/07/28 01:07:27;;;;;;;42.05;20.35;;;17.80;99.90;;;;;;5058188;28;20129;-79
2023/07/28 01:10:03;;;;;;;35.55;19.10;;;17.90;99.90;;;;;;4971257;28;20042;-80
2023/07/28 01:12:29;;;;;;;42.17;19.02;;;17.80;99.90;;;;;;5014398;28;20073;-80
2023/07/28 01:14:54;;;;;;;36.70;18.75;;;17.80;99.90;;;;;;4976028;28;20543;-80
2023/07/28 01:17:23;;;;;;;44.22;18.90;;;17.80;99.90;;;;;;4977467;28;20042;-79
2023/07/28 01:19:50;;;;;;;33.72;19.52;;;17.80;99.90;;;;;;4975134;28;20039;-79
2023/07/28 01:22:49;;;;;;;39.28;18.90;;;17.90;99.90;;;;;;4970169;28;20393;-79
2023/07/28 01:25:36;;;;;;;37.50;18.88;;;17.90;99.90;;;;;;4970681;28;20501;-80
2023/07/28 01:28:03;;;;;;;37.60;18.08;;;17.80;99.90;;;;;;4992078;28;20045;-79
2023/07/28 01:30:29;;;;;;;33.47;18.63;;;17.80;99.90;;;;;;4974437;28;20540;-79
2023/07/28 01:32:56;;;;;;;42.67;18.38;;;17.90;99.90;;;;;;5007986;28;20082;-79
2023/07/28 01:35:22;;;;;;;35.78;18.65;;;17.80;99.90;;;;;;4959998;28;20043;-79
2023/07/28 01:37:50;;;;;;;32.90;17.98;;;17.90;99.90;;;;;;4961351;28;20487;-80
2023/07/28 01:40:20;;;;;;;37.47;18.02;;;17.80;99.90;;;;;;4963994;28;20450;-79
2023/07/28 01:42:46;;;;;;;36.33;17.98;;;17.80;99.90;;;;;;4978628;28;20099;-80
2023/07/28 01:45:11;;;;;;;32.60;17.73;;;17.90;99.90;;;;;;4959878;28;20043;-79
2023/07/28 01:47:37;;;;;;;35.65;18.00;;;17.80;99.90;;;;;;4960566;28;20042;-80
2023/07/28 01:50:03;;;;;;;32.30;17.05;;;17.80;99.90;;;;;;4969786;28;20038;-79
2023/07/28 01:52:29;;;;;;;29.90;17.58;;;17.80;99.90;;;;;;4954137;28;20070;-79
2023/07/28 01:54:54;;;;;;;30.83;18.42;;;17.90;99.90;;;;;;4954222;28;20062;-79
2023/07/28 01:57:20;;;;;;;32.38;16.83;;;17.90;99.90;;;;;;4963578;28;20049;-79
2023/07/28 01:59:46;;;;;;;34.20;17.20;;;17.80;99.90;;;;;;4967254;28;20035;-79
2023/07/28 02:02:12;;;;;;;35.05;17.88;;;17.80;99.90;;;;;;4971164;28;20049;-80
2023/07/28 02:04:37;;;;;;;38.08;17.25;;;17.80;99.90;;;;;;4960576;28;20035;-80
2023/07/28 02:07:03;;;;;;;31.95;17.92;;;17.90;99.90;;;;;;4968820;28;20414;-80
2023/07/28 02:09:28;;;;;;;34.35;17.33;;;17.90;99.90;;;;;;4967245;28;20046;-80
2023/07/28 02:11:54;;;;;;;32.40;17.00;;;17.90;99.90;;;;;;4973117;28;20050;-80
2023/07/28 02:14:20;;;;;;;32.30;16.63;;;17.90;99.90;;;;;;4960457;28;20078;-79
2023/07/28 02:16:45;;;;;;;36.20;17.17;;;17.80;99.90;;;;;;4964052;28;20050;-79
2023/07/28 02:19:11;;;;;;;32.33;17.50;;;17.90;99.90;;;;;;4993289;28;20402;-79
2023/07/28 02:21:36;;;;;;;37.20;16.52;;;17.90;99.90;;;;;;4961241;28;20035;-79
2023/07/28 02:24:02;;;;;;;32.05;16.75;;;17.90;99.90;;;;;;5029688;28;20121;-79
2023/07/28 02:26:27;;;;;;;27.38;16.75;;;17.90;99.90;;;;;;4959106;28;20043;-79
2023/07/28 02:28:53;;;;;;;34.05;15.95;;;17.80;99.90;;;;;;4967800;28;20487;-79
2023/07/28 02:31:19;;;;;;;36.53;16.63;;;17.90;99.90;;;;;;4972551;28;20504;-79
2023/07/28 02:33:44;;;;;;;35.67;16.58;;;17.80;99.90;;;;;;4973558;28;20035;-79
2023/07/28 02:36:10;;;;;;;33.10;16.50;;;17.90;99.90;;;;;;4956647;28;20108;-79
2023/07/28 02:38:35;;;;;;;33.88;16.77;;;17.90;99.90;;;;;;4970628;28;20486;-79
2023/07/28 02:41:03;;;;;;;35.30;17.83;;;17.90;99.90;;;;;;4966320;28;20045;-79
2023/07/28 02:43:29;;;;;;;31.98;16.35;;;17.80;99.90;;;;;;4965184;28;20379;-79
2023/07/28 02:46:00;;;;;;;30.08;16.58;;;17.80;99.90;;;;;;4965799;28;20041;-80
2023/07/28 02:48:26;;;;;;;34.00;16.77;;;17.80;99.90;;;;;;4964026;28;20049;-80
2023/07/28 02:50:52;;;;;;;34.55;17.23;;;17.80;99.90;;;;;;4965691;28;20042;-80
2023/07/28 02:53:18;;;;;;;28.40;16.23;;;17.90;99.90;;;;;;4942015;28;20042;-81
2023/07/28 02:55:45;;;;;;;35.47;17.00;;;17.90;99.90;;;;;;4972187;28;20042;-80
2023/07/28 02:58:12;;;;;;;32.92;16.23;;;17.80;99.90;;;;;;4972135;28;20050;-80
2023/07/28 03:00:39;;;;;;;30.77;16.60;;;17.80;99.90;;;;;;4972718;28;20031;-80
2023/07/28 03:03:05;;;;;;;28.58;16.50;;;17.80;99.90;;;;;;4969335;28;20043;-80
2023/07/28 03:05:32;;;;;;;36.90;16.83;;;17.80;99.90;;;;;;5015186;28;20069;-80
2023/07/28 03:07:58;;;;;;;34.50;17.25;;;17.80;99.90;;;;;;4969165;28;20042;-80
2023/07/28 03:10:24;;;;;;;27.98;16.30;;;17.80;99.90;;;;;;4975748;28;20047;-80
2023/07/28 03:12:49;;;;;;;30.38;16.73;;;17.80;99.90;;;;;;4965707;28;20585;-80
2023/07/28 03:15:15;;;;;;;34.70;17.00;;;17.80;99.90;;;;;;4957007;28;20043;-80
2023/07/28 03:17:40;;;;;;;30.38;16.13;;;17.80;99.90;;;;;;4971405;28;20035;-79
2023/07/28 03:20:06;;;;;;;35.88;16.70;;;17.80;99.90;;;;;;4968050;28;20478;-79
2023/07/28 03:22:32;;;;;;;31.52;16.92;;;17.80;99.90;;;;;;4968118;28;20038;-80
2023/07/28 03:24:58;;;;;;;33.10;16.65;;;17.80;99.90;;;;;;4958222;28;20286;-79
2023/07/28 03:27:24;;;;;;;28.92;16.10;;;17.80;99.90;;;;;;4961812;28;20095;-79
2023/07/28 03:29:50;;;;;;;31.42;15.95;;;17.80;99.90;;;;;;4971557;28;20046;-79
2023/07/28 03:32:16;;;;;;;29.95;16.08;;;17.80;99.90;;;;;;4966416;28;20050;-79
2023/07/28 03:34:42;;;;;;;32.40;15.65;;;17.80;99.90;;;;;;4968996;28;20047;-79
2023/07/28 03:37:08;;;;;;;38.80;17.42;;;17.90;99.90;;;;;;4972046;28;20599;-80
2023/07/28 03:39:33;;;;;;;32.08;16.60;;;17.80;99.90;;;;;;4963717;28;20038;-79
2023/07/28 03:41:59;;;;;;;32.88;16.60;;;17.80;99.90;;;;;;4974016;28;20448;-79
2023/07/28 03:44:25;;;;;;;34.75;17.20;;;17.80;99.90;;;;;;4960666;28;20084;-79
2023/07/28 03:46:50;;;;;;;35.88;17.70;;;17.90;99.90;;;;;;4972888;28;20042;-79
2023/07/28 03:49:16;;;;;;;32.90;16.08;;;17.90;99.90;;;;;;4975308;28;20061;-79
2023/07/28 03:51:41;;;;;;;40.03;16.90;;;17.80;99.90;;;;;;4984424;28;20043;-79
2023/07/28 03:54:07;;;;;;;29.05;16.23;;;17.90;99.90;;;;;;4957809;28;20050;-79
2023/07/28 03:56:33;;;;;;;37.75;17.58;;;17.90;99.90;;;;;;4971069;28;20038;-79
2023/07/28 03:58:58;;;;;;;34.20;17.13;;;17.90;99.90;;;;;;4969815;28;20043;-79
2023/07/28 04:01:24;;;;;;;38.20;18.15;;;17.90;99.90;;;;;;4964788;28;20062;-79
2023/07/28 04:03:49;;;;;;;31.80;17.75;;;17.90;99.90;;;;;;4962054;28;20038;-79
2023/07/28 04:06:15;;;;;;;38.45;18.52;;;17.90;99.90;;;;;;4961168;28;20065;-80
2023/07/28 04:08:41;;;;;;;35.03;18.20;;;17.90;99.90;;;;;;4975626;28;20125;-80
2023/07/28 04:11:07;;;;;;;37.13;18.98;;;17.90;99.90;;;;;;4979366;28;20034;-80
2023/07/28 04:13:33;;;;;;;35.63;17.88;;;17.90;99.90;;;;;;5046387;28;20050;-80
2023/07/28 04:15:59;;;;;;;34.33;19.40;;;17.90;99.90;;;;;;4966476;28;20049;-79
2023/07/28 04:18:25;;;;;;;36.00;18.65;;;17.90;99.90;;;;;;4973718;28;20460;-80
2023/07/28 04:20:50;;;;;;;32.45;17.88;;;17.90;99.90;;;;;;4995393;28;20123;-80
2023/07/28 04:23:16;;;;;;;38.65;18.85;;;17.90;99.90;;;;;;4973001;28;20096;-80
2023/07/28 04:25:42;;;;;;;36.17;18.65;;;17.90;99.90;;;;;;4948013;28;20099;-80
2023/07/28 04:28:07;;;;;;;42.78;19.05;;;17.90;99.90;;;;;;4989655;28;20049;-80
2023/07/28 04:30:33;;;;;;;38.53;19.35;;;17.90;99.90;;;;;;4970118;28;20070;-80
2023/07/28 04:32:58;;;;;;;41.80;19.33;;;17.90;99.90;;;;;;4973155;28;20068;-80
2023/07/28 04:35:24;;;;;;;37.15;17.83;;;17.90;99.90;;;;;;4962205;28;20118;-80
2023/07/28 04:37:49;;;;;;;35.97;19.65;;;17.90;99.90;;;;;;4969530;28;20056;-80
2023/07/28 04:40:15;;;;;;;40.60;18.92;;;17.90;99.90;;;;;;4969350;28;20053;-80
2023/07/28 04:42:41;;;;;;;39.15;18.33;;;17.90;99.90;;;;;;5012640;28;20054;-80
2023/07/28 04:45:07;;;;;;;40.88;19.17;;;17.90;99.90;;;;;;4980731;28;20474;-80
2023/07/28 04:47:33;;;;;;;35.70;19.20;;;17.90;99.90;;;;;;4989411;28;20049;-80
2023/07/28 04:50:06;;;;;;;37.03;17.65;;;17.90;99.90;;;;;;4973804;28;20042;-80
2023/07/28 04:52:32;;;;;;;37.75;18.45;;;17.90;99.90;;;;;;4999512;28;20043;-80
2023/07/28 04:54:58;;;;;;;31.17;17.73;;;17.90;99.90;;;;;;4988372;28;20053;-81
2023/07/28 04:57:23;;;;;;;37.33;18.85;;;18.00;99.90;;;;;;4973531;28;20405;-81
2023/07/28 04:59:49;;;;;;;37.80;19.27;;;17.90;99.90;;;;;;4973638;28;20119;-81
2023/07/28 05:02:14;;;;;;;36.10;18.45;;;17.90;99.90;;;;;;5037887;28;20050;-81
2023/07/28 05:04:40;;;;;;;34.03;18.45;;;18.00;99.90;;;;;;4952928;28;20034;-80
2023/07/28 05:07:06;;;;;;;30.33;17.35;;;17.90;99.90;;;;;;4965102;28;20129;-80
2023/07/28 05:09:31;;;;;;;38.92;18.90;;;17.90;99.90;;;;;;4966528;28;20050;-81
2023/07/28 05:11:57;;;;;;;40.60;19.60;;;18.00;99.90;;;;;;5013369;28;20491;-81
2023/07/28 05:14:22;;;;;;;34.88;19.15;;;18.00;99.90;;;;;;5025057;28;20125;-81
2023/07/28 05:16:48;;;;;;;34.72;19.70;;;18.00;99.90;;;;;;4982638;28;20383;-82
2023/07/28 05:19:13;;;;;;;39.75;19.40;;;18.00;99.90;;;;;;4984815;28;20046;-82
2023/07/28 05:21:39;;;;;;;34.75;18.52;;;18.00;99.90;;;;;;4987580;28;20073;-82
2023/07/28 05:24:06;;;;;;;36.38;18.50;;;18.00;99.90;;;;;;4991014;28;20073;-81
2023/07/28 05:26:31;;;;;;;32.90;17.75;;;18.00;99.90;;;;;;4986819;28;20034;-81
2023/07/28 05:28:57;;;;;;;34.97;19.15;;;18.10;99.90;;;;;;4987136;28;20087;-82
2023/07/28 05:31:22;;;;;;;28.23;17.65;;;18.10;99.90;;;;;;4971323;28;20402;-81
2023/07/28 05:33:49;;;;;;;32.22;18.75;;;18.10;99.90;;;;;;4983106;28;20379;-81
2023/07/28 05:36:14;;;;;;;33.65;18.10;;;18.10;99.90;;;;;;4983240;28;20506;-81
2023/07/28 05:38:40;;;;;;;34.90;18.08;;;18.10;99.90;;;;;;4991699;28;20088;-81
2023/07/28 05:41:07;;;;;;;31.40;17.25;;;18.10;99.90;;;;;;4986338;28;20077;-81
2023/07/28 05:43:33;;;;;;;33.47;18.08;;;18.10;99.90;;;;;;4967152;28;20038;-82
2023/07/28 05:45:59;;;;;;;32.72;17.65;;;18.10;99.90;;;;;;4983133;28;20046;-82
2023/07/28 05:48:25;;;;;;;31.33;17.55;;;18.20;99.90;;;;;;4972070;28;20355;-82
2023/07/28 05:50:53;;;;;;;32.80;17.30;;;18.10;99.90;;;;;;4981237;28;20042;-82
2023/07/28 05:53:21;;;;;;;35.03;16.77;;;18.20;99.90;;;;;;4974378;28;20046;-82
2023/07/28 05:55:47;;;;;;;32.22;16.63;;;18.20;99.90;;;;;;5040546;28;20054;-82
2023/07/28 05:58:13;;;;;;;37.33;17.90;;;18.20;99.90;;;;;;4969265;28;20050;-81
2023/07/28 06:00:40;;;;;;;30.25;17.23;;;18.20;99.90;;;;;;4962237;28;20478;-81
2023/07/28 06:03:07;;;;;;;27.73;17.42;;;18.30;99.90;;;;;;4962422;28;20034;-81
2023/07/28 06:05:32;;;;;;;30.48;17.55;;;18.30;99.90;;;;;;4992665;28;20297;-81
2023/07/28 06:07:58;;;;;;;35.63;18.33;;;18.30;99.90;;;;;;5014968;28;20101;-81
2023/07/28 06:10:23;;;;;;;31.25;17.00;;;18.40;99.90;;;;;;4976225;28;20233;-81
2023/07/28 06:12:49;;;;;;;29.90;17.60;;;18.40;99.90;;;;;;4962402;28;20572;-81
2023/07/28 06:15:15;;;;;;;29.58;17.38;;;18.40;99.90;;;;;;4966572;28;20042;-81
2023/07/28 06:17:40;;;;;;;31.90;16.95;;;18.50;99.90;;;;;;4989018;28;20038;-81
2023/07/28 06:20:07;;;;;;;27.85;16.25;;;18.50;99.90;;;;;;4981348;28;20077;-82
2023/07/28 06:22:32;;;;;;;30.48;16.65;;;18.50;99.90;;;;;;4970185;28;20038;-81
2023/07/28 06:24:58;;;;;;;29.27;16.52;;;18.50;99.90;;;;;;4985533;28;20033;-81
2023/07/28 06:27:25;;;;;;;32.60;16.85;;;18.50;99.90;;;;;;4985306;28;20137;-81
2023/07/28 06:29:50;;;;;;;25.50;15.80;;;18.60;99.90;;;;;;4969244;28;20469;-80
2023/07/28 06:32:16;;;;;;;32.67;15.52;;;18.60;99.90;;;;;;4972690;28;20115;-82
2023/07/28 06:34:42;;;;;;;29.63;16.27;;;18.60;99.90;;;;;;4980669;28;20046;-82
2023/07/28 06:37:07;;;;;;;27.30;15.05;;;18.70;99.90;;;;;;4967524;28;20048;-80
2023/07/28 06:39:33;;;;;;;24.83;14.90;;;18.80;99.90;;;;;;4990687;28;20084;-80
2023/07/28 06:41:58;;;;;;;22.05;14.23;;;18.80;99.90;;;;;;4964989;28;20110;-81
2023/07/28 06:44:24;;;;;;;21.67;13.68;;;18.80;99.90;;;;;;4983599;28;20047;-80
2023/07/28 06:46:50;;;;;;;24.70;14.15;;;18.90;99.90;;;;;;4973133;28;20049;-80
2023/07/28 06:49:16;;;;;;;23.15;13.45;;;18.90;99.90;;;;;;4990086;28;20038;-80
2023/07/28 06:51:41;;;;;;;21.67;12.80;;;18.90;99.90;;;;;;4970878;28;20034;-80
2023/07/28 06:54:12;;;;;;;21.10;13.20;;;18.90;99.90;;;;;;4965136;28;20042;-80
2023/07/28 06:56:38;;;;;;;19.30;12.48;;;18.90;99.90;;;;;;5058870;28;20042;-80
2023/07/28 06:59:03;;;;;;;20.38;12.57;;;18.90;99.90;;;;;;4991510;28;20390;-82
2023/07/28 07:01:29;;;;;;;24.20;13.88;;;18.90;99.90;;;;;;4973680;28;20092;-81
2023/07/28 07:03:55;;;;;;;20.00;13.10;;;18.90;99.90;;;;;;4970474;28;20121;-81
2023/07/28 07:06:21;;;;;;;20.58;14.38;;;18.80;99.90;;;;;;5025247;28;20038;-81
2023/07/28 07:08:47;;;;;;;24.70;13.95;;;18.90;99.90;;;;;;4974273;28;20045;-81
2023/07/28 07:11:12;;;;;;;25.67;14.68;;;18.90;99.90;;;;;;4977176;28;20067;-80
2023/07/28 07:13:38;;;;;;;20.02;13.25;;;18.90;99.90;;;;;;4975347;28;20550;-79
2023/07/28 07:16:04;;;;;;;21.88;13.98;;;18.90;99.90;;;;;;4992722;28;20066;-80
2023/07/28 07:18:29;;;;;;;23.63;13.18;;;19.00;99.90;;;;;;4992429;28;20038;-80
2023/07/28 07:20:55;;;;;;;23.63;15.02;;;19.00;99.90;;;;;;4992237;28;20115;-79
2023/07/28 07:23:21;;;;;;;25.73;13.85;;;19.00;99.90;;;;;;4988274;28;20038;-79
2023/07/28 07:25:49;;;;;;;16.90;12.57;;;19.00;99.90;;;;;;4993069;28;20038;-79
2023/07/28 07:28:15;;;;;;;22.90;12.60;;;19.10;99.90;;;;;;4990793;28;20060;-79
2023/07/28 07:30:41;;;;;;;18.23;12.88;;;19.10;99.90;;;;;;4970671;28;20046;-80
2023/07/28 07:33:07;;;;;;;19.02;12.50;;;19.10;99.90;;;;;;4975469;28;20042;-80
2023/07/28 07:35:37;;;;;;;18.38;12.13;;;19.20;99.90;;;;;;4974864;28;20039;-79
2023/07/28 07:38:03;;;;;;;17.45;12.45;;;19.20;99.90;;;;;;4989092;28;20455;-79
2023/07/28 07:40:29;;;;;;;14.98;11.25;;;19.50;99.90;;;;;;4986382;28;20030;-79
2023/07/28 07:42:56;;;;;;;20.02;11.82;;;19.40;99.90;;;;;;4986994;28;20547;-80
2023/07/28 07:45:21;;;;;;;16.77;11.55;;;19.40;99.90;;;;;;4973619;28;20043;-79
2023/07/28 07:47:47;;;;;;;20.05;11.20;;;19.50;99.90;;;;;;4969977;28;20038;-79
2023/07/28 07:50:13;;;;;;;16.70;10.63;;;19.60;99.90;;;;;;4990475;28;20094;-78
2023/07/28 07:52:39;;;;;;;19.38;11.90;;;19.60;99.90;;;;;;4992141;28;20041;-79
2023/07/28 07:55:05;;;;;;;16.25;10.60;;;19.60;99.90;;;;;;4984925;28;20035;-79
2023/07/28 07:57:31;;;;;;;13.50;10.02;;;19.60;99.90;;;;;;4974034;28;20099;-79
2023/07/28 08:00:00;;;;;;;20.00;11.02;;;19.70;99.90;;;;;;4976220;28;20117;-79
2023/07/28 08:02:26;;;;;;;16.17;10.38;;;19.80;99.90;;;;;;4988278;28;20398;-80
2023/07/28 08:04:55;;;;;;;15.75;9.10;;;19.90;99.90;;;;;;5037882;28;20035;-79
2023/07/28 08:07:22;;;;;;;13.55;8.50;;;19.90;99.90;;;;;;4954311;28;20042;-78
2023/07/28 08:09:47;;;;;;;13.38;8.30;;;19.90;99.90;;;;;;4973270;28;20057;-79
2023/07/28 08:12:14;;;;;;;11.77;8.50;;;20.00;99.90;;;;;;4976817;28;20054;-79
2023/07/28 08:14:40;;;;;;;12.52;7.90;;;20.00;99.90;;;;;;4998434;28;20038;-79
2023/07/28 08:17:05;;;;;;;12.90;7.90;;;20.00;99.90;;;;;;4986506;28;20482;-80
2023/07/28 08:19:31;;;;;;;13.75;8.15;;;20.10;99.90;;;;;;4972520;28;20038;-79
2023/07/28 08:21:56;;;;;;;13.63;8.13;;;20.20;99.90;;;;;;4984979;28;20046;-79
2023/07/28 08:24:22;;;;;;;11.15;8.50;;;20.20;99.90;;;;;;5021047;28;20519;-81
2023/07/28 08:26:48;;;;;;;13.00;7.90;;;20.30;99.90;;;;;;4971459;28;20050;-80
2023/07/28 08:29:15;;;;;;;16.05;9.15;;;20.30;99.90;;;;;;4972710;28;20448;-81
2023/07/28 08:31:41;;;;;;;15.50;8.02;;;20.20;99.90;;;;;;5000634;28;20079;-82
2023/07/28 08:34:07;;;;;;;15.10;9.35;;;20.20;99.90;;;;;;4985086;28;20070;-79
2023/07/28 08:36:34;;;;;;;18.65;9.15;;;20.30;99.90;;;;;;4985018;28;20588;-79
2023/07/28 08:39:00;;;;;;;16.20;9.15;;;20.30;99.90;;;;;;4975189;28;20394;-79
2023/07/28 08:41:25;;;;;;;20.90;9.48;;;20.40;99.90;;;;;;4978384;28;20030;-79
2023/07/28 08:43:53;;;;;;;16.90;8.98;;;20.40;99.90;;;;;;4979940;28;20081;-79
2023/07/28 08:46:20;;;;;;;19.05;9.13;;;20.50;99.90;;;;;;4986870;28;20034;-80
2023/07/28 08:48:46;;;;;;;18.38;10.60;;;20.50;99.90;;;;;;4992502;28;20038;-78
2023/07/28 08:51:13;;;;;;;16.13;9.63;;;20.50;99.90;;;;;;4990603;28;20046;-80
2023/07/28 08:53:38;;;;;;;16.05;9.07;;;20.50;99.90;;;;;;4973280;28;20398;-80
2023/07/28 08:56:04;;;;;;;17.98;9.73;;;20.50;99.90;;;;;;4966929;28;20042;-81
2023/07/28 08:58:30;;;;;;;19.25;9.55;;;20.60;99.90;;;;;;4971184;28;20094;-80
2023/07/28 09:01:00;;;;;;;16.23;9.93;;;20.80;99.90;;;;;;4991152;28;20034;-80
2023/07/28 09:03:27;;;;;;;15.18;8.90;;;20.90;99.90;;;;;;4994359;28;20038;-79
2023/07/28 09:05:59;;;;;;;15.38;9.35;;;20.90;99.90;;;;;;4984815;28;20042;-80
2023/07/28 09:08:25;;;;;;;14.15;8.38;;;21.00;99.90;;;;;;4994676;28;20050;-80
2023/07/28 09:10:51;;;;;;;12.80;8.27;;;20.90;99.90;;;;;;4976458;28;20043;-80
2023/07/28 09:13:19;;;;;;;13.82;8.30;;;20.90;99.90;;;;;;4995800;28;20066;-80
2023/07/28 09:15:46;;;;;;;16.40;9.10;;;21.10;99.90;;;;;;4966483;28;20046;-80
2023/07/28 09:18:16;;;;;;;17.52;9.23;;;21.20;99.90;;;;;;4952659;28;20038;-80
2023/07/28 09:20:43;;;;;;;17.10;8.55;;;21.30;99.90;;;;;;4976722;28;20034;-81
2023/07/28 09:23:10;;;;;;;15.60;9.02;;;21.30;99.90;;;;;;4986165;28;20498;-80
2023/07/28 09:25:36;;;;;;;17.27;9.40;;;21.40;99.90;;;;;;4971794;28;20042;-81
2023/07/28 09:28:03;;;;;;;16.48;9.20;;;21.30;99.90;;;;;;4984536;28;20095;-81
2023/07/28 09:30:49;;;;;;;18.20;9.50;;;21.30;99.90;;;;;;4994605;28;20039;-78
2023/07/28 09:33:29;;;;;;;15.20;8.95;;;21.30;99.90;;;;;;5027582;28;20058;-81
2023/07/28 09:35:54;;;;;;;15.55;9.63;;;21.20;99.90;;;;;;4996589;28;20108;-81
2023/07/28 09:38:22;;;;;;;14.23;8.88;;;21.10;99.90;;;;;;4991989;28;20099;-81
2023/07/28 09:40:48;;;;;;;15.13;9.80;;;20.90;99.90;;;;;;4986604;28;20042;-81
2023/07/28 09:43:14;;;;;;;14.32;10.43;;;20.80;99.90;;;;;;4982921;28;20092;-81
2023/07/28 09:45:42;;;;;;;16.48;10.20;;;20.80;99.90;;;;;;4972620;28;20074;-81
2023/07/28 09:48:10;;;;;;;16.63;11.32;;;20.80;99.90;;;;;;4971089;28;20061;-81
2023/07/28 09:50:38;;;;;;;16.77;10.73;;;20.90;99.90;;;;;;4988693;28;20528;-81
2023/07/28 09:53:04;;;;;;;14.57;10.73;;;21.00;99.90;;;;;;5004054;28;20441;-81
2023/07/28 09:55:30;;;;;;;15.68;10.50;;;21.00;99.90;;;;;;4967769;28;20520;-81
2023/07/28 09:57:59;;;;;;;15.85;10.55;;;21.00;99.90;;;;;;4976717;28;20046;-81
2023/07/28 10:00:25;;;;;;;15.13;10.35;;;21.00;99.90;;;;;;5016597;28;20095;-81
2023/07/28 10:02:53;;;;;;;16.17;10.75;;;20.90;99.90;;;;;;4987568;28;20043;-81
2023/07/28 10:05:19;;;;;;;15.63;10.80;;;20.70;99.90;;;;;;4970878;28;20042;-81
2023/07/28 10:07:46;;;;;;;19.17;10.68;;;20.80;99.90;;;;;;4972199;28;20095;-81
2023/07/28 10:10:13;;;;;;;15.73;10.10;;;20.80;99.90;;;;;;4989691;28;20108;-81
2023/07/28 10:12:59;;;;;;;14.48;9.93;;;20.90;99.90;;;;;;5003597;28;20396;-81
2023/07/28 10:15:32;;;;;;;15.05;9.40;;;21.10;99.90;;;;;;4962256;28;20042;-81
2023/07/28 10:17:59;;;;;;;14.43;9.68;;;21.20;99.90;;;;;;4964044;28;20117;-79
2023/07/28 10:20:31;;;;;;;14.43;9.68;;;21.00;99.90;;;;;;4974733;28;20046;-81
2023/07/28 10:23:24;;;;;;;14.70;9.75;;;21.20;99.90;;;;;;4972269;28;20099;-81
2023/07/28 10:26:01;;;;;;;11.27;8.88;;;21.20;99.90;;;;;;4966765;28;20057;-81
2023/07/28 10:28:30;;;;;;;13.93;9.07;;;21.10;99.90;;;;;;4972090;28;20047;-80
2023/07/28 10:30:57;;;;;;;11.95;8.88;;;21.00;99.90;;;;;;4978462;28;20043;-80
2023/07/28 10:33:29;;;;;;;13.60;10.73;;;20.90;99.90;;;;;;4969342;28;20042;-81
2023/07/28 10:35:54;;;;;;;15.57;10.65;;;21.10;99.90;;;;;;4966166;28;20050;-81
2023/07/28 10:38:34;;;;;;;13.95;10.68;;;21.40;99.90;;;;;;4973436;28;20039;-80
2023/07/28 10:41:14;;;;;;;15.40;10.73;;;21.40;99.90;;;;;;4994708;28;20375;-81
2023/07/28 10:43:41;;;;;;;17.05;10.57;;;21.40;99.90;;;;;;4977769;28;20076;-81
2023/07/28 10:46:09;;;;;;;12.98;9.60;;;21.50;99.90;;;;;;4962497;28;20402;-80
2023/07/28 10:48:36;;;;;;;12.73;9.30;;;21.50;99.90;;;;;;4978140;28;20070;-81
2023/07/28 10:51:02;;;;;;;14.25;9.18;;;21.60;99.90;;;;;;4988904;28;20440;-80
2023/07/28 10:53:27;;;;;;;13.43;9.30;;;21.70;99.90;;;;;;4975331;28;20038;-80
2023/07/28 10:55:53;;;;;;;13.52;9.77;;;21.80;99.90;;;;;;4995171;28;20463;-80
2023/07/28 10:58:20;;;;;;;12.75;9.60;;;21.80;99.90;;;;;;4977701;28;20058;-80
2023/07/28 11:00:45;;;;;;;14.32;10.15;;;21.70;99.90;;;;;;4974273;28;20406;-80
2023/07/28 11:03:12;;;;;;;14.32;10.40;;;21.70;99.90;;;;;;4969524;28;20075;-80
2023/07/28 11:05:39;;;;;;;12.63;9.88;;;21.60;99.90;;;;;;4974469;28;20037;-81
2023/07/28 11:08:07;;;;;;;14.93;8.77;;;21.60;99.90;;;;;;5030673;28;20402;-81
2023/07/28 11:10:35;;;;;;;10.00;7.40;;;21.60;99.90;;;;;;4983705;28;20035;-80
2023/07/28 11:13:03;;;;;;;11.57;7.40;;;21.50;99.90;;;;;;4994970;28;20090;-80
2023/07/28 11:15:28;;;;;;;11.55;7.30;;;21.50;99.90;;;;;;4971080;28;20035;-81
2023/07/28 11:17:55;;;;;;;11.48;8.65;;;21.40;99.90;;;;;;4980171;28;20387;-79
2023/07/28 11:20:25;;;;;;;13.00;9.32;;;21.40;99.90;;;;;;4996704;28;20494;-80
2023/07/28 11:22:56;;;;;;;13.20;8.52;;;21.40;99.90;;;;;;4975128;28;20046;-81
2023/07/28 11:25:23;;;;;;;12.18;7.60;;;21.60;99.90;;;;;;4989373;28;20047;-81
2023/07/28 11:27:50;;;;;;;9.68;7.55;;;22.00;99.90;;;;;;4975511;28;20053;-80
2023/07/28 11:30:17;;;;;;;11.90;7.35;;;22.10;99.90;;;;;;4991926;28;20091;-80
2023/07/28 11:32:44;;;;;;;12.35;8.30;;;22.20;99.90;;;;;;4979916;28;20099;-80
2023/07/28 11:35:12;;;;;;;10.05;7.10;;;22.40;99.90;;;;;;4971005;28;20046;-81
2023/07/28 11:37:40;;;;;;;10.70;8.00;;;22.80;99.90;;;;;;4970692;28;20047;-81
2023/07/28 11:40:07;;;;;;;13.23;7.38;;;23.20;99.90;;;;;;4990160;28;20031;-80
2023/07/28 11:42:48;;;;;;;10.85;7.68;;;23.40;99.90;;;;;;4989963;28;20077;-80
2023/07/28 11:45:15;;;;;;;8.60;6.63;;;23.50;99.90;;;;;;4987410;28;20043;-81
2023/07/28 11:48:02;;;;;;;10.45;6.90;;;23.60;99.90;;;;;;4975181;28;20056;-81
2023/07/28 11:50:30;;;;;;;8.40;6.40;;;23.60;99.90;;;;;;4984590;28;20045;-81
2023/07/28 11:52:57;;;;;;;8.77;6.00;;;23.60;99.90;;;;;;4969595;28;20402;-81
2023/07/28 11:55:23;;;;;;;9.02;5.90;;;23.70;99.90;;;;;;4960283;28;20042;-81
2023/07/28 11:57:51;;;;;;;7.20;5.18;;;23.70;99.90;;;;;;4971726;28;20047;-81
2023/07/28 12:00:16;;;;;;;7.57;4.95;;;23.70;99.90;;;;;;4968588;28;20049;-81
2023/07/28 12:02:43;;;;;;;8.23;5.18;;;23.70;99.90;;;;;;4966000;28;20035;-80
2023/07/28 12:05:15;;;;;;;7.57;4.88;;;23.70;99.90;;;;;;4975981;28;20505;-81
2023/07/28 12:07:47;;;;;;;6.97;5.13;;;23.50;99.90;;;;;;4960477;28;20494;-80
2023/07/28 12:10:13;;;;;;;9.02;5.10;;;23.40;99.90;;;;;;4973454;28;20043;-82
2023/07/28 12:12:43;;;;;;;7.85;5.13;;;23.20;99.90;;;;;;4958243;28;20142;-81
2023/07/28 12:15:26;;;;;;;7.88;4.80;;;23.10;99.90;;;;;;4950132;28;20632;-80
2023/07/28 12:18:15;;;;;;;9.30;5.00;;;23.10;99.90;;;;;;4969114;28;20121;-80
2023/07/28 12:20:49;;;;;;;8.40;4.80;;;23.20;99.90;;;;;;4958363;28;20039;-80
2023/07/28 12:23:20;;;;;;;5.68;4.63;;;23.20;99.90;;;;;;4991808;28;20450;-80
2023/07/28 12:25:46;;;;;;;7.07;4.72;;;23.10;99.90;;;;;;4978443;28;20483;-80
2023/07/28 12:28:12;;;;;;;7.85;4.57;;;23.00;99.90;;;;;;4994299;28;20042;-80
2023/07/28 12:30:38;;;;;;;5.68;4.00;;;22.90;99.90;;;;;;4977255;28;20042;-80